Duluth International Airport

Airport
ICAO code: 
KDLH
Summary
ICAO Region: 
NAM
Territory: 
Location: 
Duluth, Minnesota,
Elevation: 
1428 ft
Coordinates: 
Aerial View: 
46° 50' 29.045" N, 92° 10' 59.755" W
Airport CFIT: 
Altimeter Temperature Error Correction
Airport GND: 
Aircraft Ground De/Anti Icing
Airport RE: 
Landing on Contaminated Runways
Metar
Observation
KDLH 040655Z 30014G26KT 10SM CLR M03/M12 A3006 RMK AO2 PK WND 29028/0645 SLP202 T10281117
Station
Duluth, Duluth International Airport
Date/Time
2021-12-04 06:55:00
Wind direction
300°
Wind speed
14 kts
Lowest cloud amount
n/a
Temperature
-2.8°C
Dew point
-11.7°C
Humidity
50%
Weather condition
n/a

Description

Duluth International Airport is a public-use, joint civil-military (ANG) airport located 9 km northwest of the central business district of Duluth, a city in St. Louis County, Minnesota.

Climatology

Humid Continental climate (Köppen climate classification Dfb) - Variable weather patterns and a large seasonal temperature variance. Summers are often warm and humid with frequent thunderstorms and winters can be very cold with frequent snowfall and persistent snow cover. The proximity of Lake Superior moderates the climate of Duluth, especially in the summer.

Runways

Designator Length Width Surface Rops
3/21 1737 46 ASP Yes/Yes
9/27 3094 46 CON Yes/Yes
Airport map: 
Aerial View: 

SKYbrary Partners:

Safety knowledge contributed by: